Time;durP1;ratioP1;P1;durP2;ratioP2;P2;SDS_P1;SDS_P2;PMS_P1;PMS_P2;Temp;Humidity;BMP_temperature;BMP_pressure;BME280_temperature;BME280_humidity;BME280_pressure;Samples;Min_cycle;Max_cycle;Signal;HPM_P1;HPM_P2
2023/10/25 00:00:15;;;;;;;1.60;0.83;;;13.40;78.40;;;;;;5002886;28;20528;-51
2023/10/25 00:02:44;;;;;;;1.63;0.90;;;13.40;78.50;;;;;;5025741;28;20428;-51
2023/10/25 00:05:12;;;;;;;2.80;1.00;;;13.40;78.50;;;;;;5005039;28;20461;-51
2023/10/25 00:07:41;;;;;;;2.20;0.90;;;13.40;78.40;;;;;;5002645;28;20476;-50
2023/10/25 00:10:10;;;;;;;2.30;1.10;;;13.40;78.40;;;;;;5004281;28;20439;-53
2023/10/25 00:12:40;;;;;;;2.60;1.20;;;13.40;78.40;;;;;;5008816;28;21006;-51
2023/10/25 00:15:09;;;;;;;2.33;0.90;;;13.40;78.40;;;;;;5004613;28;20493;-52
2023/10/25 00:17:37;;;;;;;3.63;1.10;;;13.40;78.50;;;;;;5021828;28;20470;-52
2023/10/25 00:20:07;;;;;;;2.63;1.57;;;13.40;78.40;;;;;;5024566;28;20517;-53
2023/10/25 00:22:36;;;;;;;2.00;0.97;;;13.40;78.40;;;;;;5020891;28;20572;-51
2023/10/25 00:25:04;;;;;;;1.63;0.97;;;13.40;78.40;;;;;;5006965;28;20908;-51
2023/10/25 00:27:32;;;;;;;1.90;0.93;;;13.40;78.40;;;;;;5025119;28;20855;-52
2023/10/25 00:30:02;;;;;;;2.80;1.00;;;13.40;78.30;;;;;;5024388;28;20927;-52
2023/10/25 00:32:32;;;;;;;2.27;0.90;;;13.40;78.40;;;;;;5003253;28;20576;-51
2023/10/25 00:35:00;;;;;;;1.20;0.80;;;13.40;78.30;;;;;;5025461;28;20893;-52
2023/10/25 00:37:28;;;;;;;2.10;1.10;;;13.40;78.40;;;;;;5020518;28;20583;-52
2023/10/25 00:39:57;;;;;;;1.60;1.00;;;13.40;78.30;;;;;;5004627;28;20962;-54
2023/10/25 00:42:26;;;;;;;1.20;0.70;;;13.40;78.30;;;;;;5006323;28;20935;-53
2023/10/25 00:44:54;;;;;;;1.30;0.60;;;13.40;78.40;;;;;;5007780;28;20471;-53
2023/10/25 00:47:25;;;;;;;1.30;0.90;;;13.40;78.30;;;;;;5005922;28;21097;-55
2023/10/25 00:49:53;;;;;;;2.20;0.87;;;13.40;78.30;;;;;;5007444;28;20432;-53
2023/10/25 00:52:22;;;;;;;2.17;0.70;;;13.40;78.20;;;;;;5004365;28;20487;-52
2023/10/25 00:54:51;;;;;;;1.50;1.20;;;13.40;78.30;;;;;;5033268;28;20817;-52
2023/10/25 00:57:19;;;;;;;1.50;0.90;;;13.40;78.20;;;;;;5005921;28;20476;-53
2023/10/25 00:59:48;;;;;;;1.20;0.70;;;13.40;78.30;;;;;;5021499;28;20440;-52
2023/10/25 01:02:16;;;;;;;1.63;1.10;;;13.40;78.20;;;;;;5003623;28;20869;-53
2023/10/25 01:04:46;;;;;;;1.37;0.90;;;13.40;78.20;;;;;;5007891;28;20524;-53
2023/10/25 01:07:15;;;;;;;2.10;0.97;;;13.40;78.20;;;;;;5023380;28;20460;-54
2023/10/25 01:09:44;;;;;;;3.53;1.10;;;13.40;78.10;;;;;;5038955;28;20783;-53
2023/10/25 01:12:13;;;;;;;1.40;0.90;;;13.40;78.20;;;;;;5040111;28;20474;-53
2023/10/25 01:14:41;;;;;;;3.80;0.87;;;13.40;78.20;;;;;;5017557;28;20478;-52
2023/10/25 01:17:09;;;;;;;1.57;0.97;;;13.40;78.20;;;;;;5022664;28;20480;-51
2023/10/25 01:19:37;;;;;;;1.40;0.90;;;13.40;78.20;;;;;;5020265;28;20544;-52
2023/10/25 01:22:07;;;;;;;1.40;1.00;;;13.40;78.30;;;;;;5033006;28;20516;-52
2023/10/25 01:24:37;;;;;;;4.20;1.47;;;13.30;78.10;;;;;;5019098;28;20471;-52
2023/10/25 01:27:05;;;;;;;4.50;1.27;;;13.40;78.20;;;;;;5036879;28;20840;-53
2023/10/25 01:29:33;;;;;;;1.43;0.90;;;13.40;78.20;;;;;;5027656;28;20558;-53
2023/10/25 01:32:01;;;;;;;2.07;1.33;;;13.40;78.10;;;;;;5020437;28;20480;-53
2023/10/25 01:34:30;;;;;;;1.53;0.83;;;13.40;78.10;;;;;;5047066;28;20459;-53
2023/10/25 01:36:58;;;;;;;1.00;0.67;;;13.40;78.00;;;;;;5027864;28;21047;-53
2023/10/25 01:39:26;;;;;;;2.27;1.10;;;13.40;78.00;;;;;;5021943;28;20949;-51
2023/10/25 01:41:56;;;;;;;1.70;1.00;;;13.40;77.90;;;;;;5028750;28;20554;-53
2023/10/25 01:44:24;;;;;;;1.67;0.80;;;13.40;77.90;;;;;;5024522;28;20454;-52
2023/10/25 01:46:52;;;;;;;1.73;1.03;;;13.40;78.00;;;;;;5038686;28;20963;-53
2023/10/25 01:49:21;;;;;;;2.63;1.10;;;13.40;77.90;;;;;;5025956;28;20443;-53
2023/10/25 01:51:49;;;;;;;1.30;0.90;;;13.30;77.80;;;;;;5030322;28;20813;-53
2023/10/25 01:54:18;;;;;;;2.17;1.17;;;13.30;77.80;;;;;;5024512;28;20672;-52
2023/10/25 01:56:46;;;;;;;1.97;1.03;;;13.30;77.80;;;;;;5025905;28;21009;-53
2023/10/25 01:59:16;;;;;;;3.20;1.20;;;13.30;77.80;;;;;;5027754;28;20526;-51
2023/10/25 02:01:44;;;;;;;1.40;0.60;;;13.30;77.80;;;;;;5021251;28;21037;-52
2023/10/25 02:04:12;;;;;;;4.10;0.97;;;13.30;77.80;;;;;;5022819;28;20438;-51
2023/10/25 02:06:41;;;;;;;1.73;0.90;;;13.30;77.70;;;;;;5019664;28;20519;-53
2023/10/25 02:09:10;;;;;;;2.00;1.00;;;13.30;77.70;;;;;;5023233;28;20531;-54
2023/10/25 02:11:39;;;;;;;2.00;0.97;;;13.30;77.70;;;;;;5021682;28;20835;-53
2023/10/25 02:14:07;;;;;;;1.20;0.83;;;13.30;77.60;;;;;;5029269;28;20505;-50
2023/10/25 02:16:37;;;;;;;2.10;1.30;;;13.30;77.60;;;;;;5025751;28;20521;-52
2023/10/25 02:19:05;;;;;;;1.63;1.20;;;13.30;77.60;;;;;;5027440;28;20527;-51
2023/10/25 02:21:35;;;;;;;2.30;0.77;;;13.30;77.60;;;;;;5024496;28;21133;-52
2023/10/25 02:24:06;;;;;;;1.70;0.83;;;13.30;77.60;;;;;;5026363;28;20454;-51
2023/10/25 02:26:35;;;;;;;1.17;1.00;;;13.30;77.70;;;;;;5024881;28;20529;-51
2023/10/25 02:29:03;;;;;;;1.57;0.80;;;13.30;77.60;;;;;;5026458;28;20443;-52
2023/10/25 02:31:34;;;;;;;2.67;0.90;;;13.30;77.60;;;;;;5045021;28;20923;-51
2023/10/25 02:34:03;;;;;;;1.57;0.90;;;13.30;77.30;;;;;;5023594;28;20449;-51
2023/10/25 02:36:32;;;;;;;3.90;1.07;;;13.30;77.30;;;;;;5044567;28;20464;-52
2023/10/25 02:39:00;;;;;;;2.50;1.00;;;13.20;78.40;;;;;;5043674;28;20438;-52
2023/10/25 02:41:29;;;;;;;2.60;1.30;;;13.20;77.20;;;;;;5027910;28;20832;-52
2023/10/25 02:43:58;;;;;;;3.37;1.50;;;13.20;77.20;;;;;;5022711;28;20443;-51
2023/10/25 02:46:26;;;;;;;1.83;1.10;;;13.20;77.40;;;;;;5025008;28;20862;-52
2023/10/25 02:48:55;;;;;;;1.90;0.87;;;13.20;77.30;;;;;;5024886;28;20442;-52
2023/10/25 02:51:24;;;;;;;2.23;1.50;;;13.20;77.40;;;;;;5022946;28;20852;-52
2023/10/25 02:53:54;;;;;;;2.70;1.10;;;13.20;77.40;;;;;;5022714;28;20505;-52
2023/10/25 02:56:22;;;;;;;2.33;1.27;;;13.20;77.40;;;;;;5025829;28;21049;-52
2023/10/25 02:58:51;;;;;;;2.73;1.00;;;13.10;77.40;;;;;;5028118;28;20494;-53
2023/10/25 03:01:23;;;;;;;2.40;0.90;;;13.10;77.40;;;;;;5021285;28;20530;-52
2023/10/25 03:03:52;;;;;;;1.93;1.30;;;13.10;77.50;;;;;;5024423;28;20523;-53
2023/10/25 03:06:20;;;;;;;1.67;0.83;;;13.10;77.30;;;;;;5027839;28;20474;-52
2023/10/25 03:08:49;;;;;;;2.60;1.20;;;13.10;77.30;;;;;;5023576;28;20536;-52
2023/10/25 03:11:18;;;;;;;2.37;1.50;;;13.10;77.30;;;;;;5024634;28;20439;-52
2023/10/25 03:13:47;;;;;;;1.93;0.90;;;13.10;77.30;;;;;;5046322;28;20437;-51
2023/10/25 03:16:15;;;;;;;1.93;0.90;;;13.10;77.30;;;;;;5042231;28;20481;-52
2023/10/25 03:18:43;;;;;;;1.43;0.97;;;13.10;77.30;;;;;;5021207;28;20491;-52
2023/10/25 03:21:14;;;;;;;2.50;1.10;;;13.10;77.30;;;;;;5029308;28;20458;-52
2023/10/25 03:23:42;;;;;;;1.73;1.30;;;13.10;77.30;;;;;;5023836;28;20439;-53
2023/10/25 03:26:13;;;;;;;1.80;1.40;;;13.00;77.20;;;;;;5025014;28;20539;-52
2023/10/25 03:28:41;;;;;;;3.00;1.30;;;13.00;77.30;;;;;;5022873;28;20411;-53
2023/10/25 03:31:10;;;;;;;2.23;1.73;;;13.00;77.30;;;;;;5044969;28;20433;-52
2023/10/25 03:33:39;;;;;;;2.13;1.67;;;13.00;77.40;;;;;;5028802;28;20441;-53
2023/10/25 03:36:07;;;;;;;1.60;1.20;;;13.00;77.60;;;;;;5026673;28;20534;-52
2023/10/25 03:38:35;;;;;;;1.80;0.70;;;13.00;77.60;;;;;;5027440;28;20570;-52
2023/10/25 03:41:05;;;;;;;2.80;1.17;;;13.00;77.70;;;;;;5025783;28;20444;-53
2023/10/25 03:43:36;;;;;;;1.30;0.90;;;13.00;77.40;;;;;;5030342;28;20439;-51
2023/10/25 03:46:05;;;;;;;1.30;1.00;;;13.00;77.60;;;;;;5022865;28;20494;-52
2023/10/25 03:48:34;;;;;;;2.07;1.13;;;13.00;77.60;;;;;;5041615;28;20447;-53
2023/10/25 03:51:04;;;;;;;1.67;0.87;;;13.00;77.60;;;;;;5028519;28;20965;-52
2023/10/25 03:53:33;;;;;;;1.60;1.30;;;13.00;77.50;;;;;;5024476;28;20442;-53
2023/10/25 03:56:02;;;;;;;2.30;1.10;;;13.00;77.60;;;;;;5045396;28;20508;-51
2023/10/25 03:58:31;;;;;;;1.93;1.20;;;13.00;77.70;;;;;;5023924;28;20563;-51
2023/10/25 04:01:02;;;;;;;1.53;1.10;;;13.00;77.70;;;;;;5015360;28;20447;-53
2023/10/25 04:03:34;;;;;;;1.67;1.00;;;13.00;77.50;;;;;;5023176;28;20829;-52
2023/10/25 04:06:04;;;;;;;1.47;0.90;;;13.00;77.70;;;;;;5029620;28;20466;-52
2023/10/25 04:08:33;;;;;;;1.43;1.07;;;13.00;77.60;;;;;;5020218;28;20473;-52
2023/10/25 04:11:01;;;;;;;2.27;1.50;;;13.00;77.70;;;;;;5029337;28;20903;-52
2023/10/25 04:13:29;;;;;;;1.47;1.10;;;12.90;77.70;;;;;;5023724;28;20436;-52
2023/10/25 04:15:59;;;;;;;1.80;1.10;;;12.90;77.70;;;;;;5024298;28;20790;-52
2023/10/25 04:18:30;;;;;;;1.57;1.17;;;13.00;77.80;;;;;;5021598;28;20463;-52
2023/10/25 04:20:59;;;;;;;1.33;1.10;;;13.00;77.80;;;;;;5028602;28;20942;-53
2023/10/25 04:23:31;;;;;;;1.47;1.13;;;13.00;77.80;;;;;;5023467;28;20505;-53
2023/10/25 04:26:06;;;;;;;1.50;1.10;;;13.00;77.80;;;;;;5024561;28;20461;-53
2023/10/25 04:28:35;;;;;;;3.80;1.23;;;12.90;77.80;;;;;;5041776;28;20458;-53
2023/10/25 04:31:03;;;;;;;1.53;1.10;;;12.90;77.80;;;;;;5022061;28;20577;-53
2023/10/25 04:33:33;;;;;;;2.13;1.30;;;12.90;77.70;;;;;;5030410;28;20489;-53
2023/10/25 04:36:01;;;;;;;1.40;0.90;;;13.00;77.80;;;;;;5021024;28;20470;-52
2023/10/25 04:38:30;;;;;;;2.13;1.20;;;13.00;77.80;;;;;;5016653;28;20471;-53
2023/10/25 04:40:59;;;;;;;2.20;1.50;;;13.00;77.80;;;;;;5019656;28;20431;-52
2023/10/25 04:43:27;;;;;;;1.50;1.00;;;13.00;77.80;;;;;;5021869;28;20479;-53
2023/10/25 04:45:59;;;;;;;1.40;1.13;;;12.90;77.70;;;;;;5015040;28;20478;-52
2023/10/25 04:48:27;;;;;;;2.57;1.30;;;12.90;77.70;;;;;;5020879;28;20446;-51
2023/10/25 04:50:57;;;;;;;2.60;1.27;;;13.00;77.70;;;;;;5027706;28;20438;-51
2023/10/25 04:53:25;;;;;;;1.97;1.40;;;13.00;77.70;;;;;;5020567;28;20448;-52
2023/10/25 04:55:53;;;;;;;1.80;1.20;;;12.90;77.50;;;;;;5021051;28;20468;-51
2023/10/25 04:58:24;;;;;;;1.40;1.13;;;12.90;77.70;;;;;;5029186;28;20454;-52
2023/10/25 05:00:53;;;;;;;3.10;1.53;;;12.90;77.60;;;;;;5033369;28;21096;-50
2023/10/25 05:03:21;;;;;;;2.47;1.00;;;12.90;77.40;;;;;;5014523;28;20811;-53
2023/10/25 05:05:50;;;;;;;1.60;1.30;;;13.00;77.50;;;;;;5025620;28;20462;-53
2023/10/25 05:08:20;;;;;;;1.63;1.20;;;13.00;77.60;;;;;;5027224;28;20462;-51
2023/10/25 05:10:53;;;;;;;1.67;1.20;;;12.90;77.40;;;;;;5031426;28;20446;-53
2023/10/25 05:13:21;;;;;;;1.90;1.43;;;12.90;77.50;;;;;;5022152;28;20495;-53
2023/10/25 05:15:50;;;;;;;1.90;1.17;;;12.90;77.50;;;;;;5022746;28;20466;-52
2023/10/25 05:18:19;;;;;;;2.00;1.40;;;13.00;77.70;;;;;;5043501;28;20466;-53
2023/10/25 05:20:48;;;;;;;1.70;1.30;;;12.90;77.60;;;;;;5019222;28;21008;-52
2023/10/25 05:23:19;;;;;;;2.87;1.43;;;12.90;77.70;;;;;;5021154;28;20459;-51
2023/10/25 05:25:47;;;;;;;1.80;1.27;;;12.90;77.60;;;;;;5021101;28;20525;-53
2023/10/25 05:28:16;;;;;;;3.43;1.63;;;13.00;77.70;;;;;;5014770;28;20974;-52
2023/10/25 05:30:46;;;;;;;2.33;1.17;;;12.90;77.50;;;;;;5017303;28;20932;-54
2023/10/25 05:33:18;;;;;;;4.40;1.50;;;12.90;77.60;;;;;;5044563;28;21037;-52
2023/10/25 05:35:47;;;;;;;2.63;1.60;;;12.90;77.70;;;;;;5041950;28;20461;-53
2023/10/25 05:38:16;;;;;;;1.60;1.27;;;12.90;77.60;;;;;;5016321;28;20451;-50
2023/10/25 05:40:48;;;;;;;1.70;1.20;;;12.90;77.70;;;;;;5021644;28;20467;-52
2023/10/25 05:43:17;;;;;;;2.60;1.50;;;12.90;77.80;;;;;;5019801;28;20433;-53
2023/10/25 05:45:46;;;;;;;3.00;1.60;;;12.90;77.80;;;;;;5038495;28;20446;-53
2023/10/25 05:48:15;;;;;;;2.80;1.60;;;12.90;77.80;;;;;;5018455;28;21050;-53
2023/10/25 05:50:45;;;;;;;3.03;1.30;;;12.90;77.90;;;;;;5020437;28;20537;-53
2023/10/25 05:53:14;;;;;;;2.00;1.40;;;12.90;77.50;;;;;;5035995;28;20476;-51
2023/10/25 05:55:43;;;;;;;1.87;1.13;;;12.90;77.80;;;;;;5019631;28;21037;-51
2023/10/25 05:58:14;;;;;;;2.23;1.40;;;12.90;77.80;;;;;;5037152;28;20439;-53
2023/10/25 06:00:48;;;;;;;2.13;1.20;;;12.90;77.80;;;;;;5036773;28;20903;-53
2023/10/25 06:03:20;;;;;;;1.70;1.20;;;12.90;77.70;;;;;;5026078;28;20946;-53
2023/10/25 06:05:53;;;;;;;2.60;1.30;;;12.90;77.80;;;;;;5043135;28;20984;-51
2023/10/25 06:08:21;;;;;;;2.27;1.27;;;12.90;77.80;;;;;;5020792;28;20531;-51
2023/10/25 06:10:50;;;;;;;2.00;1.10;;;12.90;77.80;;;;;;5023933;28;20516;-53
2023/10/25 06:13:21;;;;;;;1.60;1.10;;;12.90;77.70;;;;;;5044728;28;20975;-51
2023/10/25 06:15:49;;;;;;;2.03;0.97;;;12.90;77.80;;;;;;5024060;28;20560;-53
2023/10/25 06:18:18;;;;;;;2.13;1.50;;;12.90;77.80;;;;;;5027435;28;20475;-53
2023/10/25 06:20:46;;;;;;;1.33;1.00;;;12.90;77.80;;;;;;5023497;28;21115;-51
2023/10/25 06:23:14;;;;;;;1.50;1.30;;;12.90;77.80;;;;;;5016298;28;20448;-50
2023/10/25 06:25:42;;;;;;;3.10;1.50;;;12.90;77.90;;;;;;5040209;28;20487;-51
2023/10/25 06:28:11;;;;;;;1.53;1.30;;;12.80;78.00;;;;;;5047091;28;20431;-52
2023/10/25 06:30:41;;;;;;;2.77;1.63;;;12.80;78.00;;;;;;5024227;28;20868;-52
2023/10/25 06:33:09;;;;;;;2.70;1.47;;;12.80;78.10;;;;;;5023332;28;20889;-52
2023/10/25 06:35:37;;;;;;;1.83;1.50;;;12.80;78.10;;;;;;5024816;28;21349;-52
2023/10/25 06:38:07;;;;;;;2.47;1.50;;;12.80;78.10;;;;;;5026988;28;20469;-52
2023/10/25 06:40:37;;;;;;;2.60;1.93;;;12.80;78.10;;;;;;5024083;28;20558;-51
2023/10/25 06:43:08;;;;;;;2.00;1.47;;;12.80;78.10;;;;;;5024952;28;21326;-51
2023/10/25 06:45:37;;;;;;;2.07;1.63;;;12.80;78.20;;;;;;5037181;28;20475;-53
2023/10/25 06:48:08;;;;;;;2.20;1.50;;;12.80;78.20;;;;;;5022178;28;20438;-51
2023/10/25 06:50:36;;;;;;;3.03;1.93;;;12.80;78.20;;;;;;5021490;28;20435;-52
2023/10/25 06:53:05;;;;;;;3.83;1.77;;;12.80;78.70;;;;;;5039768;28;20541;-50
2023/10/25 06:55:34;;;;;;;2.60;1.87;;;12.80;78.50;;;;;;5027438;28;20445;-53
2023/10/25 06:58:04;;;;;;;2.47;2.13;;;12.80;78.40;;;;;;5049822;28;20446;-51
2023/10/25 07:00:33;;;;;;;3.50;1.30;;;12.80;79.60;;;;;;5025805;28;20601;-53
2023/10/25 07:03:03;;;;;;;1.87;1.53;;;12.80;78.20;;;;;;5021481;28;20533;-52
2023/10/25 07:05:35;;;;;;;2.90;1.57;;;12.80;78.30;;;;;;5018632;28;20978;-52
2023/10/25 07:08:04;;;;;;;3.17;1.40;;;12.80;78.10;;;;;;5022492;28;20455;-50
2023/10/25 07:10:34;;;;;;;4.30;1.43;;;12.80;78.00;;;;;;5023598;28;20439;-51
2023/10/25 07:13:02;;;;;;;3.50;1.33;;;12.80;77.90;;;;;;5027060;28;20439;-53
2023/10/25 07:15:32;;;;;;;1.93;1.40;;;12.90;78.00;;;;;;5022114;28;20809;-51
2023/10/25 07:18:01;;;;;;;1.73;1.40;;;12.90;77.80;;;;;;5023977;28;21293;-53
2023/10/25 07:20:29;;;;;;;3.00;1.10;;;12.90;77.80;;;;;;5026087;28;20467;-52
2023/10/25 07:23:00;;;;;;;2.23;1.40;;;12.90;77.80;;;;;;5021891;28;20438;-52
2023/10/25 07:25:28;;;;;;;2.50;1.20;;;12.90;77.80;;;;;;5029191;28;20980;-52
2023/10/25 07:27:57;;;;;;;1.37;0.80;;;12.80;77.80;;;;;;5029418;28;20455;-51
2023/10/25 07:30:25;;;;;;;2.10;1.30;;;12.90;77.80;;;;;;5022757;28;20447;-53
2023/10/25 07:32:53;;;;;;;3.60;1.13;;;12.90;77.80;;;;;;5024942;28;20523;-51
2023/10/25 07:35:22;;;;;;;2.43;1.10;;;12.90;78.00;;;;;;5046508;28;21081;-52
2023/10/25 07:37:50;;;;;;;1.30;0.90;;;12.80;78.00;;;;;;5021709;28;20820;-53
2023/10/25 07:40:20;;;;;;;1.60;1.00;;;12.80;78.00;;;;;;5021170;28;20549;-53
2023/10/25 07:42:49;;;;;;;1.90;1.13;;;12.80;77.90;;;;;;5022839;28;20506;-51
2023/10/25 07:45:18;;;;;;;2.53;1.10;;;12.90;78.10;;;;;;5005670;28;20992;-51
2023/10/25 07:47:46;;;;;;;1.60;1.13;;;12.80;77.80;;;;;;5044644;28;20799;-50
2023/10/25 07:50:18;;;;;;;1.80;1.43;;;12.80;77.60;;;;;;5022685;28;20446;-54
2023/10/25 07:52:48;;;;;;;1.40;0.90;;;12.90;77.70;;;;;;5021737;28;20447;-50
2023/10/25 07:55:17;;;;;;;1.70;1.10;;;12.90;77.40;;;;;;5026141;28;20463;-51
2023/10/25 07:58:08;;;;;;;2.40;1.33;;;12.90;77.40;;;;;;5026980;28;20423;-53
2023/10/25 08:00:39;;;;;;;1.40;1.00;;;12.90;77.60;;;;;;5024058;28;20506;-53
2023/10/25 08:03:07;;;;;;;1.13;0.80;;;12.90;77.30;;;;;;5024621;28;20957;-53
2023/10/25 08:05:35;;;;;;;1.63;0.83;;;12.90;77.30;;;;;;5022221;28;20494;-51
2023/10/25 08:08:04;;;;;;;2.33;1.10;;;12.90;77.40;;;;;;4997969;28;20447;-52
2023/10/25 08:10:33;;;;;;;1.73;1.27;;;12.90;77.30;;;;;;5041052;28;20439;-53
2023/10/25 08:13:04;;;;;;;1.53;1.03;;;12.90;77.30;;;;;;5024861;28;20467;-52
2023/10/25 08:15:36;;;;;;;2.33;1.10;;;12.90;77.20;;;;;;5026545;28;20485;-52
2023/10/25 08:18:06;;;;;;;1.00;0.70;;;12.90;77.20;;;;;;5021890;28;20451;-52
2023/10/25 08:20:36;;;;;;;1.33;1.03;;;12.90;77.30;;;;;;5024334;28;20455;-52
2023/10/25 08:23:05;;;;;;;1.50;0.80;;;12.90;77.40;;;;;;5023356;28;20863;-52
2023/10/25 08:25:35;;;;;;;2.43;0.97;;;12.90;77.20;;;;;;5025421;28;21027;-53
2023/10/25 08:28:03;;;;;;;2.20;1.20;;;12.90;77.20;;;;;;5025806;28;20463;-53
2023/10/25 08:30:31;;;;;;;1.60;1.00;;;12.90;77.30;;;;;;5022013;28;20536;-53
2023/10/25 08:33:01;;;;;;;1.47;1.10;;;12.90;77.20;;;;;;5046539;28;20530;-53
2023/10/25 08:35:29;;;;;;;2.00;1.20;;;12.90;77.30;;;;;;5041761;28;20452;-53
2023/10/25 08:37:58;;;;;;;1.57;1.20;;;12.80;77.00;;;;;;5026423;28;20450;-51
2023/10/25 08:40:26;;;;;;;1.80;1.13;;;12.90;77.40;;;;;;5027065;28;20488;-53
2023/10/25 08:42:58;;;;;;;2.37;1.30;;;12.90;77.40;;;;;;5030376;28;20511;-52
2023/10/25 08:45:26;;;;;;;1.30;1.10;;;12.90;77.30;;;;;;5021939;28;20962;-53
2023/10/25 08:47:55;;;;;;;2.30;0.93;;;12.80;77.30;;;;;;5023486;28;20438;-51
2023/10/25 08:50:25;;;;;;;1.77;1.10;;;12.90;77.20;;;;;;5028221;28;20481;-52
2023/10/25 08:52:53;;;;;;;2.03;1.10;;;12.90;77.40;;;;;;5017023;28;20975;-51
2023/10/25 08:55:21;;;;;;;1.83;1.10;;;12.90;77.20;;;;;;5023452;28;20464;-51
2023/10/25 08:57:54;;;;;;;1.33;1.00;;;12.90;77.30;;;;;;5035252;28;20438;-51
2023/10/25 09:00:24;;;;;;;1.20;0.90;;;12.90;77.10;;;;;;5018662;28;20477;-53
2023/10/25 09:03:06;;;;;;;3.73;1.13;;;12.90;77.10;;;;;;5026945;28;20526;-52
2023/10/25 09:05:42;;;;;;;1.30;0.70;;;12.90;77.30;;;;;;5020523;28;20481;-50
2023/10/25 09:08:16;;;;;;;1.87;1.50;;;12.90;77.30;;;;;;5024196;28;21009;-53
2023/10/25 09:10:54;;;;;;;1.20;1.00;;;12.80;77.80;;;;;;5029207;28;20438;-51
2023/10/25 09:13:22;;;;;;;2.00;1.40;;;12.80;77.70;;;;;;5030265;28;20805;-51
2023/10/25 09:15:51;;;;;;;1.90;0.93;;;12.80;77.80;;;;;;5041921;28;20824;-51
2023/10/25 09:18:23;;;;;;;2.43;1.30;;;12.80;78.00;;;;;;5035682;28;20950;-53
2023/10/25 09:20:54;;;;;;;1.00;0.70;;;12.80;77.90;;;;;;5039641;28;20472;-53
2023/10/25 09:23:38;;;;;;;1.30;0.80;;;12.80;77.90;;;;;;5023847;28;20890;-53
2023/10/25 09:26:14;;;;;;;2.00;1.10;;;12.80;78.10;;;;;;5018498;28;21026;-53
2023/10/25 09:28:45;;;;;;;1.73;1.00;;;12.80;77.80;;;;;;5015283;28;20442;-53
2023/10/25 09:31:24;;;;;;;4.43;1.20;;;12.80;77.80;;;;;;5038122;28;20482;-52
2023/10/25 09:33:53;;;;;;;2.30;1.30;;;12.80;78.70;;;;;;5040443;28;20447;-53
2023/10/25 09:36:23;;;;;;;1.73;0.90;;;12.80;78.80;;;;;;5016479;28;20503;-51
2023/10/25 09:38:53;;;;;;;2.33;1.20;;;12.80;78.70;;;;;;5033729;28;20525;-52
2023/10/25 09:41:22;;;;;;;1.63;1.07;;;12.80;78.70;;;;;;5041151;28;20467;-53
2023/10/25 09:43:51;;;;;;;1.30;1.00;;;12.80;78.50;;;;;;5022255;28;20424;-52
2023/10/25 09:46:22;;;;;;;2.03;1.80;;;12.80;78.40;;;;;;5035958;28;20471;-50
2023/10/25 09:48:56;;;;;;;1.80;1.00;;;12.80;78.50;;;;;;5017616;28;20803;-53
2023/10/25 09:51:50;;;;;;;1.60;1.10;;;12.80;78.80;;;;;;5020631;28;20972;-51
2023/10/25 09:54:24;;;;;;;4.57;1.13;;;12.80;78.90;;;;;;5018207;28;20541;-51
2023/10/25 09:56:54;;;;;;;3.23;1.30;;;12.80;79.20;;;;;;5018108;28;20916;-52
2023/10/25 09:59:27;;;;;;;1.93;1.20;;;12.70;78.90;;;;;;5025273;28;20653;-53
2023/10/25 10:01:56;;;;;;;2.40;1.10;;;12.70;78.90;;;;;;5021605;28;20552;-51
2023/10/25 10:04:34;;;;;;;1.63;1.10;;;12.70;78.90;;;;;;5029151;28;20808;-52
2023/10/25 10:07:14;;;;;;;3.80;1.23;;;12.80;78.90;;;;;;5040923;28;20553;-53
2023/10/25 10:09:48;;;;;;;1.80;1.50;;;12.70;79.10;;;;;;5040799;28;20527;-53
2023/10/25 10:12:17;;;;;;;1.70;1.20;;;12.70;79.00;;;;;;5023315;28;20473;-52
2023/10/25 10:14:45;;;;;;;3.20;1.20;;;12.70;79.50;;;;;;5028766;28;20469;-51
2023/10/25 10:17:15;;;;;;;1.87;1.40;;;12.70;78.90;;;;;;5029466;28;20536;-52
2023/10/25 10:19:45;;;;;;;3.10;1.20;;;12.70;79.70;;;;;;5046960;28;20502;-51
2023/10/25 10:22:16;;;;;;;2.13;1.50;;;12.70;79.40;;;;;;5049342;28;20483;-52
2023/10/25 10:24:47;;;;;;;2.33;1.23;;;12.70;79.90;;;;;;5039453;28;20593;-53
2023/10/25 10:27:17;;;;;;;2.00;1.50;;;12.70;79.40;;;;;;5026058;28;20565;-53
2023/10/25 10:29:46;;;;;;;1.33;0.70;;;12.70;80.00;;;;;;5039761;28;20505;-52
2023/10/25 10:32:15;;;;;;;2.23;1.67;;;12.70;79.60;;;;;;5024507;28;20979;-52
2023/10/25 10:34:45;;;;;;;1.83;1.20;;;12.70;79.40;;;;;;5024022;28;20485;-51
2023/10/25 10:37:17;;;;;;;2.90;1.33;;;12.70;80.50;;;;;;5020135;28;20487;-51
2023/10/25 10:40:14;;;;;;;2.03;1.70;;;12.70;82.70;;;;;;5036401;28;20456;-53
2023/10/25 10:42:46;;;;;;;2.93;1.90;;;12.60;85.80;;;;;;5009909;28;21044;-51
2023/10/25 10:45:16;;;;;;;4.03;1.40;;;12.60;84.30;;;;;;5021034;28;20644;-51
2023/10/25 10:47:48;;;;;;;3.07;1.50;;;12.60;83.80;;;;;;5043149;28;20557;-50
2023/10/25 10:50:19;;;;;;;2.07;1.60;;;12.70;83.30;;;;;;5025357;28;20446;-51
2023/10/25 10:52:51;;;;;;;2.77;1.77;;;12.70;83.90;;;;;;5018356;28;20475;-52
2023/10/25 10:55:20;;;;;;;3.17;1.40;;;12.70;83.80;;;;;;5024370;28;20487;-51
2023/10/25 10:57:49;;;;;;;2.63;1.60;;;12.70;83.70;;;;;;5020815;28;20510;-51
2023/10/25 11:00:21;;;;;;;3.20;1.43;;;12.80;83.40;;;;;;5008233;28;20465;-52
2023/10/25 11:02:50;;;;;;;3.80;1.83;;;12.80;83.20;;;;;;5018714;28;20463;-52
2023/10/25 11:05:22;;;;;;;2.23;1.60;;;12.80;83.10;;;;;;5021566;28;20928;-52
2023/10/25 11:07:53;;;;;;;3.67;1.73;;;12.80;82.80;;;;;;5016589;28;20439;-53
2023/10/25 11:10:22;;;;;;;2.50;1.63;;;12.80;82.40;;;;;;5023637;28;20447;-52
2023/10/25 11:12:50;;;;;;;2.10;1.63;;;12.80;82.10;;;;;;5021206;28;20441;-52
2023/10/25 11:15:24;;;;;;;5.27;1.57;;;12.80;82.10;;;;;;5041580;28;20549;-53
2023/10/25 11:17:53;;;;;;;2.37;1.67;;;12.90;82.10;;;;;;5022880;28;20457;-53
2023/10/25 11:20:22;;;;;;;2.47;1.33;;;12.90;82.30;;;;;;5025313;28;20518;-51
2023/10/25 11:22:51;;;;;;;1.83;1.37;;;12.90;82.10;;;;;;5038367;28;20847;-54
2023/10/25 11:25:21;;;;;;;2.30;1.10;;;12.90;81.50;;;;;;5041107;28;20461;-51
2023/10/25 11:27:50;;;;;;;2.27;1.40;;;12.90;81.60;;;;;;5027295;28;20497;-51
2023/10/25 11:30:19;;;;;;;1.57;1.20;;;12.90;81.20;;;;;;5038316;28;20439;-52
2023/10/25 11:32:49;;;;;;;2.97;1.97;;;12.90;81.20;;;;;;5042856;28;20441;-54
2023/10/25 11:35:23;;;;;;;3.10;1.23;;;12.90;81.20;;;;;;5024463;28;20474;-52
2023/10/25 11:37:53;;;;;;;2.80;1.47;;;12.90;81.90;;;;;;5036355;28;20445;-53
2023/10/25 11:40:35;;;;;;;2.40;1.03;;;12.90;81.20;;;;;;5040389;28;20515;-52
2023/10/25 11:43:05;;;;;;;1.57;1.17;;;12.90;81.10;;;;;;5024510;28;20479;-53
2023/10/25 11:45:34;;;;;;;1.83;1.30;;;12.90;81.50;;;;;;5042512;28;21247;-51
2023/10/25 11:48:03;;;;;;;3.20;1.67;;;12.90;81.30;;;;;;5042026;28;20447;-51
2023/10/25 11:50:32;;;;;;;1.80;1.30;;;12.90;81.10;;;;;;5021659;28;20489;-52
2023/10/25 11:53:01;;;;;;;1.30;1.00;;;12.90;81.40;;;;;;5022724;28;20447;-50
2023/10/25 11:55:30;;;;;;;2.17;1.97;;;12.90;81.00;;;;;;5025808;28;20461;-53
2023/10/25 11:57:58;;;;;;;1.70;1.20;;;12.90;81.90;;;;;;5045104;28;20431;-52
2023/10/25 12:00:27;;;;;;;1.50;1.20;;;12.90;81.90;;;;;;5021275;28;20424;-53
2023/10/25 12:02:55;;;;;;;3.20;1.20;;;12.90;81.30;;;;;;5024594;28;20557;-53
2023/10/25 12:05:24;;;;;;;1.60;1.10;;;12.90;81.30;;;;;;5024100;28;20474;-53
2023/10/25 12:07:53;;;;;;;1.67;1.27;;;12.90;81.30;;;;;;5023838;28;20443;-52
2023/10/25 12:10:24;;;;;;;1.90;1.33;;;12.90;81.60;;;;;;5024744;28;20452;-53
2023/10/25 12:12:52;;;;;;;1.40;1.03;;;12.90;81.50;;;;;;5021359;28;20435;-52
2023/10/25 12:15:20;;;;;;;4.20;1.43;;;12.90;81.40;;;;;;5023207;28;20499;-53
2023/10/25 12:17:48;;;;;;;1.60;1.10;;;12.90;82.40;;;;;;5019068;28;20542;-53
2023/10/25 12:20:17;;;;;;;1.40;0.90;;;12.90;82.20;;;;;;5044633;28;20451;-52
2023/10/25 12:22:56;;;;;;;1.90;1.23;;;12.90;82.10;;;;;;5017412;28;20475;-52
2023/10/25 12:25:27;;;;;;;2.27;1.10;;;12.90;82.10;;;;;;5023774;28;20470;-53
2023/10/25 12:27:56;;;;;;;2.37;1.43;;;12.90;81.60;;;;;;5026080;28;20461;-52
2023/10/25 12:30:24;;;;;;;1.70;1.33;;;12.90;81.80;;;;;;5021015;28;20419;-51
2023/10/25 12:32:53;;;;;;;2.70;1.40;;;12.90;82.10;;;;;;5043179;28;20946;-51
2023/10/25 12:35:22;;;;;;;2.10;1.30;;;12.90;82.10;;;;;;5022889;28;20454;-52
2023/10/25 12:37:51;;;;;;;2.97;1.13;;;12.90;82.20;;;;;;5022883;28;20530;-50
2023/10/25 12:40:19;;;;;;;1.43;1.17;;;12.90;81.70;;;;;;5025656;28;20441;-51
2023/10/25 12:42:49;;;;;;;2.20;1.23;;;12.90;82.10;;;;;;5021648;28;20984;-50
2023/10/25 12:45:21;;;;;;;1.87;1.10;;;12.90;81.80;;;;;;5023971;28;20449;-52
2023/10/25 12:47:50;;;;;;;1.60;1.17;;;12.90;82.50;;;;;;5024217;28;20960;-51
2023/10/25 12:50:19;;;;;;;1.40;0.80;;;12.90;82.00;;;;;;5046585;28;20509;-50
2023/10/25 12:52:47;;;;;;;1.40;0.93;;;12.90;82.60;;;;;;5020754;28;20438;-50
2023/10/25 12:55:15;;;;;;;1.73;0.93;;;12.90;82.50;;;;;;5024587;28;20534;-52
2023/10/25 12:57:43;;;;;;;1.43;0.80;;;12.90;82.30;;;;;;5020572;28;20455;-51
2023/10/25 13:00:14;;;;;;;2.93;1.20;;;12.90;81.90;;;;;;5022991;28;20439;-53